createdAt,value
2019-03-30T00:06:17.123Z,9.93
2019-03-30T00:08:57.576Z,11.67
2019-03-30T00:11:38.879Z,10.50
2019-03-30T00:14:19.817Z,12.00
2019-03-30T00:17:00.532Z,10.23
2019-03-30T00:19:41.078Z,12.33
2019-03-30T00:22:21.773Z,8.43
2019-03-30T00:25:02.694Z,10.20
2019-03-30T00:27:43.697Z,11.40
2019-03-30T00:33:09.600Z,9.63
2019-03-30T00:35:50.396Z,9.87
2019-03-30T00:38:30.977Z,10.27
2019-03-30T00:41:11.877Z,8.57
2019-03-30T00:43:52.668Z,9.13
2019-03-30T00:46:33.468Z,10.90
2019-03-30T00:49:14.400Z,8.77
2019-03-30T00:51:55.445Z,9.93
2019-03-30T00:54:35.825Z,9.30
2019-03-30T00:57:16.221Z,11.00
2019-03-30T00:59:56.924Z,9.73
2019-03-30T01:05:23.189Z,8.50
2019-03-30T01:08:04.341Z,8.10
2019-03-30T01:10:33.698Z,11.43
2019-03-30T01:13:21.986Z,12.37
2019-03-30T01:16:10.281Z,12.30
2019-03-30T01:18:58.665Z,10.77
2019-03-30T01:21:46.955Z,11.70
2019-03-30T01:24:54.177Z,8.10
2019-03-30T01:27:42.452Z,9.83
2019-03-30T01:33:25.008Z,11.37
2019-03-30T01:36:13.466Z,8.00
2019-03-30T01:39:01.755Z,7.60
2019-03-30T01:41:50.026Z,10.47
2019-03-30T01:44:38.308Z,7.93
2019-03-30T01:47:26.681Z,10.90
2019-03-30T01:50:17.529Z,8.83
2019-03-30T01:53:06.104Z,9.30
2019-03-30T01:55:46.742Z,9.60
2019-03-30T01:58:27.120Z,9.80
2019-03-30T02:01:07.754Z,11.50
2019-03-30T02:03:48.573Z,9.93
2019-03-30T02:06:29.169Z,10.57
2019-03-30T02:09:09.552Z,8.83
2019-03-30T02:11:50.214Z,10.30
2019-03-30T02:14:31.163Z,10.53
2019-03-30T02:17:12.335Z,12.70
2019-03-30T02:19:52.849Z,9.57
2019-03-30T02:22:33.744Z,10.33
2019-03-30T02:25:14.563Z,8.47
2019-03-30T02:27:55.433Z,8.70
2019-03-30T02:30:36.287Z,14.27
2019-03-30T02:33:16.875Z,8.63
2019-03-30T02:35:57.653Z,9.10
2019-03-30T02:38:38.502Z,10.60
2019-03-30T02:41:19.246Z,10.07
2019-03-30T02:44:00.220Z,9.60
2019-03-30T02:46:41.016Z,12.00
2019-03-30T02:49:21.338Z,9.70
2019-03-30T02:52:02.418Z,10.73
2019-03-30T02:54:43.207Z,10.37
2019-03-30T02:57:23.818Z,10.50
2019-03-30T03:00:05.853Z,11.50
2019-03-30T03:02:46.586Z,9.10
2019-03-30T03:05:27.247Z,12.07
2019-03-30T03:08:08.119Z,11.00
2019-03-30T03:10:48.622Z,12.80
2019-03-30T03:16:12.706Z,10.70
2019-03-30T03:18:53.370Z,10.80
2019-03-30T03:21:33.957Z,13.93
2019-03-30T03:24:14.631Z,9.33
2019-03-30T03:26:55.219Z,12.17
2019-03-30T03:29:36.428Z,11.60
2019-03-30T03:32:17.114Z,12.40
2019-03-30T03:37:46.049Z,9.90
2019-03-30T03:40:25.651Z,10.50
2019-03-30T03:43:06.424Z,8.37
2019-03-30T03:45:47.625Z,8.83
2019-03-30T03:48:28.579Z,12.63
2019-03-30T03:51:24.815Z,10.83
2019-03-30T03:56:37.190Z,12.30
2019-03-30T03:59:18.473Z,12.27
2019-03-30T04:01:59.296Z,12.47
2019-03-30T04:04:40.369Z,12.50
2019-03-30T04:07:21.201Z,11.33
2019-03-30T04:10:01.735Z,12.90
2019-03-30T04:12:42.319Z,12.23
2019-03-30T04:15:23.237Z,11.80
2019-03-30T04:18:04.646Z,13.80
2019-03-30T04:20:45.849Z,16.50
2019-03-30T04:23:26.863Z,10.27
2019-03-30T04:26:07.579Z,9.90
2019-03-30T04:31:37.322Z,11.47
2019-03-30T04:34:17.676Z,11.67
2019-03-30T04:36:58.497Z,11.87
2019-03-30T04:39:38.927Z,9.83
2019-03-30T04:42:19.880Z,11.87
2019-03-30T04:45:00.629Z,9.40
2019-03-30T04:47:41.352Z,11.73
2019-03-30T04:53:07.262Z,8.83
2019-03-30T04:58:30.872Z,13.07
2019-03-30T05:01:11.556Z,11.17
2019-03-30T05:03:52.413Z,10.00
2019-03-30T05:06:33.121Z,12.67
2019-03-30T05:09:14.035Z,9.23
2019-03-30T05:11:54.581Z,9.73
2019-03-30T05:17:46.810Z,12.60
2019-03-30T05:20:26.826Z,13.77
2019-03-30T05:23:15.133Z,17.30
2019-03-30T05:26:03.523Z,8.20
2019-03-30T05:28:51.819Z,13.13
2019-03-30T05:34:34.235Z,11.37
2019-03-30T05:37:22.881Z,13.70
2019-03-30T05:40:11.223Z,10.60
2019-03-30T05:42:59.504Z,11.97
2019-03-30T05:45:47.772Z,11.53
2019-03-30T05:48:36.055Z,9.07
2019-03-30T05:51:24.321Z,13.50
2019-03-30T05:54:12.945Z,12.50
2019-03-30T05:56:54.132Z,13.00
2019-03-30T05:59:34.717Z,12.20
2019-03-30T06:02:15.423Z,11.33
2019-03-30T06:04:58.576Z,16.47
2019-03-30T06:07:39.976Z,12.90
2019-03-30T06:13:03.361Z,14.93
2019-03-30T06:15:44.387Z,11.77
2019-03-30T06:18:24.858Z,12.17
2019-03-30T06:23:48.847Z,13.37
2019-03-30T06:26:29.276Z,14.23
2019-03-30T06:29:09.954Z,14.53
2019-03-30T06:31:50.548Z,13.07
2019-03-30T06:34:31.293Z,14.37
2019-03-30T06:37:11.838Z,14.77
2019-03-30T06:39:53.317Z,12.63
2019-03-30T06:42:34.269Z,14.60
2019-03-30T06:45:14.645Z,11.67
2019-03-30T06:47:55.387Z,16.63
2019-03-30T06:50:36.156Z,16.57
2019-03-30T06:53:17.439Z,14.87
2019-03-30T06:55:58.329Z,13.90
2019-03-30T06:58:38.968Z,13.87
2019-03-30T07:01:20.098Z,11.73
2019-03-30T07:04:00.618Z,15.97
2019-03-30T07:09:24.638Z,14.30
2019-03-30T07:12:05.780Z,14.00
2019-03-30T07:14:46.435Z,14.73
2019-03-30T07:17:27.652Z,14.90
2019-03-30T07:20:08.192Z,11.70
2019-03-30T07:22:51.252Z,15.07
2019-03-30T07:25:32.375Z,17.67
2019-03-30T07:28:13.208Z,12.00
2019-03-30T07:30:53.990Z,13.00
2019-03-30T07:33:35.009Z,11.63
2019-03-30T07:38:58.667Z,10.80
2019-03-30T07:41:39.696Z,14.00
2019-03-30T07:44:20.881Z,15.13
2019-03-30T07:47:01.464Z,10.07
2019-03-30T07:49:42.289Z,12.10
2019-03-30T07:52:22.677Z,13.20
2019-03-30T07:55:04.213Z,13.50
2019-03-30T07:57:45.453Z,16.70
2019-03-30T08:00:30.768Z,11.80
2019-03-30T08:03:08.690Z,12.27
2019-03-30T08:05:49.884Z,12.57
2019-03-30T08:08:30.968Z,13.50
2019-03-30T08:11:14.420Z,13.87
2019-03-30T08:13:54.483Z,16.37
2019-03-30T08:19:17.422Z,15.07
2019-03-30T08:21:58.209Z,16.50
2019-03-30T08:24:38.960Z,17.40
2019-03-30T08:27:20.186Z,16.17
2019-03-30T08:30:01.117Z,16.73
2019-03-30T08:32:41.836Z,17.57
2019-03-30T08:35:22.481Z,16.10
2019-03-30T08:38:03.010Z,15.80
2019-03-30T08:40:43.467Z,14.17
2019-03-30T08:43:24.264Z,16.20
2019-03-30T08:48:49.964Z,15.40
2019-03-30T08:51:31.021Z,18.97
2019-03-30T08:54:11.992Z,19.03
2019-03-30T08:56:52.607Z,13.93
2019-03-30T08:59:33.246Z,16.50
2019-03-30T09:02:14.059Z,18.03
2019-03-30T09:04:54.661Z,14.73
2019-03-30T09:07:35.272Z,15.23
2019-03-30T09:10:16.100Z,13.73
2019-03-30T09:12:57.217Z,15.70
2019-03-30T09:15:38.385Z,17.20
2019-03-30T09:18:19.270Z,16.30
2019-03-30T09:20:59.930Z,17.47
2019-03-30T09:23:40.609Z,16.83
2019-03-30T09:26:21.426Z,17.73
2019-03-30T09:29:02.586Z,16.20
2019-03-30T09:31:43.504Z,15.60
2019-03-30T09:34:24.424Z,16.73
2019-03-30T09:37:06.142Z,17.13
2019-03-30T09:39:47.001Z,17.83
2019-03-30T09:42:27.741Z,16.67
2019-03-30T09:45:08.716Z,17.23
2019-03-30T09:50:32.580Z,17.00
2019-03-30T09:53:13.759Z,20.93
2019-03-30T09:55:54.598Z,17.10
2019-03-30T09:58:35.159Z,17.67
2019-03-30T10:01:16.279Z,16.67
2019-03-30T10:03:57.237Z,19.73
2019-03-30T10:06:37.877Z,19.07
2019-03-30T10:09:18.822Z,15.80
2019-03-30T10:11:59.979Z,21.53
2019-03-30T10:14:41.612Z,16.17
2019-03-30T10:17:22.909Z,16.37
2019-03-30T10:20:05.186Z,15.13
2019-03-30T10:22:46.308Z,13.90
2019-03-30T10:25:27.313Z,14.23
2019-03-30T10:30:52.361Z,15.67
2019-03-30T10:33:33.209Z,14.57
2019-03-30T10:36:14.000Z,17.63
2019-03-30T10:38:54.440Z,14.90
2019-03-30T10:41:35.353Z,16.73
2019-03-30T10:44:16.432Z,14.07
2019-03-30T10:46:57.246Z,14.97
2019-03-30T10:49:38.794Z,12.90
2019-03-30T10:52:20.424Z,13.87
2019-03-30T10:55:01.017Z,12.87
2019-03-30T10:57:41.743Z,13.70
2019-03-30T11:00:22.257Z,13.03
2019-03-30T11:03:03.015Z,13.33
2019-03-30T11:05:43.760Z,12.93
2019-03-30T11:08:24.481Z,12.90
2019-03-30T11:11:05.344Z,10.97
2019-03-30T11:13:46.139Z,11.73
2019-03-30T11:16:26.993Z,13.83
2019-03-30T11:19:07.641Z,12.40
2019-03-30T11:21:48.630Z,12.83
2019-03-30T11:24:29.393Z,16.30
2019-03-30T11:27:10.265Z,12.90
2019-03-30T11:29:51.321Z,12.73
2019-03-30T11:32:32.028Z,11.00
2019-03-30T11:35:12.774Z,9.90
2019-03-30T11:37:53.523Z,11.87
2019-03-30T11:40:34.344Z,10.27
2019-03-30T11:43:14.798Z,9.67
2019-03-30T11:45:55.655Z,10.10
2019-03-30T11:48:37.647Z,12.63
2019-03-30T11:51:19.072Z,8.27
2019-03-30T11:53:59.722Z,10.10
2019-03-30T11:56:40.329Z,8.87
2019-03-30T11:59:21.550Z,10.10
2019-03-30T12:02:02.442Z,8.70
2019-03-30T12:04:43.380Z,10.43
2019-03-30T12:07:24.638Z,10.80
2019-03-30T12:10:05.214Z,10.40
2019-03-30T12:12:46.000Z,10.07
2019-03-30T12:15:26.864Z,11.50
2019-03-30T12:18:07.912Z,8.70
2019-03-30T12:20:48.536Z,12.13
2019-03-30T12:23:29.704Z,10.43
2019-03-30T12:26:10.547Z,10.13
2019-03-30T12:28:51.265Z,9.30
2019-03-30T12:31:32.128Z,8.73
2019-03-30T12:36:59.015Z,9.70
2019-03-30T12:39:40.358Z,10.70
2019-03-30T12:42:20.950Z,11.83
2019-03-30T12:45:01.888Z,9.47
2019-03-30T12:47:42.299Z,10.60
2019-03-30T12:50:23.136Z,12.50
2019-03-30T12:53:03.742Z,9.07
2019-03-30T12:55:49.491Z,9.93
2019-03-30T13:01:11.732Z,9.37
2019-03-30T13:03:52.365Z,9.63
2019-03-30T13:06:33.080Z,11.60
2019-03-30T13:09:14.120Z,9.67
2019-03-30T13:11:54.737Z,9.27
2019-03-30T13:14:35.368Z,10.10
2019-03-30T13:17:15.913Z,11.60
2019-03-30T13:19:56.799Z,10.90
2019-03-30T13:22:37.478Z,8.77
2019-03-30T13:25:18.209Z,9.10
2019-03-30T13:27:59.089Z,10.33
2019-03-30T13:30:39.761Z,9.40
2019-03-30T13:33:20.748Z,11.30
2019-03-30T13:36:01.825Z,8.70
2019-03-30T13:38:42.859Z,11.20
2019-03-30T13:41:23.856Z,9.67
2019-03-30T13:44:04.372Z,7.30
2019-03-30T13:46:45.162Z,11.40
2019-03-30T13:49:25.816Z,8.47
2019-03-30T13:52:06.417Z,10.13
2019-03-30T13:54:46.848Z,8.43
2019-03-30T13:57:27.408Z,9.67
2019-03-30T14:00:07.765Z,9.47
2019-03-30T14:02:48.888Z,7.83
2019-03-30T14:05:29.587Z,10.70
2019-03-30T14:08:10.408Z,6.30
2019-03-30T14:10:51.165Z,7.33
2019-03-30T14:13:31.896Z,9.47
2019-03-30T14:16:12.768Z,8.27
2019-03-30T14:18:53.115Z,8.67
2019-03-30T14:21:33.901Z,8.57
2019-03-30T14:24:14.586Z,9.93
2019-03-30T14:26:55.376Z,10.63
2019-03-30T14:29:36.248Z,8.70
2019-03-30T14:32:16.848Z,7.17
2019-03-30T14:34:57.714Z,5.80
2019-03-30T14:37:38.619Z,8.33
2019-03-30T14:40:19.193Z,8.70
2019-03-30T14:43:00.053Z,7.20
2019-03-30T14:45:40.792Z,6.67
2019-03-30T14:48:22.049Z,5.83
2019-03-30T14:51:03.188Z,7.33
2019-03-30T14:53:44.394Z,7.63
2019-03-30T14:56:25.180Z,7.20
2019-03-30T15:01:00.425Z,7.80
2019-03-30T15:01:48.636Z,8.27
2019-03-30T15:04:29.380Z,7.73
2019-03-30T15:07:10.171Z,8.17
2019-03-30T15:09:51.063Z,8.03
2019-03-30T15:12:31.621Z,7.17
2019-03-30T15:15:12.362Z,12.83
2019-03-30T15:17:52.911Z,9.40
2019-03-30T15:20:33.542Z,8.60
2019-03-30T15:23:14.289Z,11.67
2019-03-30T15:25:55.010Z,7.60
2019-03-30T15:28:35.909Z,7.67
2019-03-30T15:31:16.296Z,15.93
2019-03-30T15:33:57.436Z,9.80
2019-03-30T15:36:38.059Z,7.27
2019-03-30T15:39:08.073Z,8.07
2019-03-30T15:41:37.397Z,7.90
2019-03-30T15:44:25.960Z,10.40
2019-03-30T15:49:48.978Z,10.20
2019-03-30T15:52:37.784Z,10.43
2019-03-30T15:55:26.332Z,8.67
2019-03-30T15:58:14.616Z,12.37
2019-03-30T16:01:02.887Z,9.77
2019-03-30T16:03:51.263Z,8.70
2019-03-30T16:06:40.139Z,8.73
2019-03-30T16:09:28.497Z,9.07
2019-03-30T16:12:16.806Z,11.37
2019-03-30T16:15:05.169Z,8.13
2019-03-30T16:17:54.023Z,10.30
2019-03-30T16:20:43.001Z,8.27
2019-03-30T16:23:31.327Z,10.80
2019-03-30T16:26:19.762Z,12.80
2019-03-30T16:29:08.115Z,9.13
2019-03-30T16:31:56.418Z,10.70
2019-03-30T16:34:44.865Z,9.70
2019-03-30T16:37:33.409Z,9.30
2019-03-30T16:40:21.709Z,10.10
2019-03-30T16:43:29.217Z,12.57
2019-03-30T16:46:17.764Z,9.17
2019-03-30T16:49:06.412Z,9.83
2019-03-30T16:51:54.722Z,10.53
2019-03-30T16:54:43.335Z,9.10
2019-03-30T16:57:24.585Z,9.03
2019-03-30T17:02:37.171Z,10.63
2019-03-30T17:05:44.394Z,10.47
2019-03-30T17:08:32.697Z,10.13
2019-03-30T17:11:20.982Z,9.07
2019-03-30T17:14:09.271Z,11.17
2019-03-30T17:16:57.547Z,11.83
2019-03-30T17:19:45.836Z,10.83
2019-03-30T17:22:34.112Z,10.67
2019-03-30T17:25:41.345Z,8.70
2019-03-30T17:28:29.738Z,11.20
2019-03-30T17:31:18.328Z,8.20
2019-03-30T17:34:06.631Z,10.60
2019-03-30T17:40:02.368Z,9.87
2019-03-30T17:42:50.647Z,7.57
2019-03-30T17:45:38.924Z,8.40
2019-03-30T17:48:27.267Z,7.70
2019-03-30T17:50:58.342Z,10.03
2019-03-30T17:53:28.021Z,7.80
2019-03-30T17:56:16.567Z,9.90
2019-03-30T17:59:04.857Z,12.80
2019-03-30T18:01:53.188Z,10.40
2019-03-30T18:04:41.474Z,10.87
2019-03-30T18:07:29.879Z,10.60
2019-03-30T18:10:18.259Z,13.20
2019-03-30T18:13:06.661Z,14.07
2019-03-30T18:15:55.066Z,13.67
2019-03-30T18:18:43.398Z,14.60
2019-03-30T18:21:31.995Z,14.20
2019-03-30T18:24:39.225Z,17.20
2019-03-30T18:27:27.528Z,14.37
2019-03-30T18:30:16.278Z,15.33
2019-03-30T18:33:05.080Z,15.43
2019-03-30T18:35:53.528Z,16.37
2019-03-30T18:39:09.304Z,22.10
2019-03-30T18:41:52.662Z,17.00
2019-03-30T18:44:41.033Z,16.27
2019-03-30T18:47:29.302Z,20.43
2019-03-30T18:50:17.634Z,15.40
2019-03-30T18:53:06.007Z,22.33
2019-03-30T18:55:54.368Z,22.20
2019-03-30T18:58:41.607Z,22.63
2019-03-30T19:01:17.507Z,19.47
2019-03-30T19:03:58.348Z,17.30
2019-03-30T19:06:39.790Z,18.60
2019-03-30T19:09:20.902Z,18.60
2019-03-30T19:14:44.743Z,17.47
2019-03-30T19:17:26.025Z,19.80
2019-03-30T19:20:06.497Z,17.47
2019-03-30T19:22:47.833Z,19.50
2019-03-30T19:25:29.872Z,18.70
2019-03-30T19:28:10.602Z,18.80
2019-03-30T19:30:51.215Z,17.60
2019-03-30T19:33:31.787Z,18.93
2019-03-30T19:36:12.473Z,17.23
2019-03-30T19:38:53.385Z,16.43
2019-03-30T19:41:34.932Z,17.53
2019-03-30T19:44:15.987Z,17.67
2019-03-30T19:52:40.293Z,16.60
2019-03-30T19:55:18.242Z,17.63
2019-03-30T19:57:59.162Z,19.20
2019-03-30T20:00:40.305Z,23.00
2019-03-30T20:06:10.197Z,24.00
2019-03-30T20:08:50.908Z,17.90
2019-03-30T20:11:32.230Z,21.57
2019-03-30T20:14:13.098Z,18.67
2019-03-30T20:16:53.664Z,18.70
2019-03-30T20:19:34.187Z,18.10
2019-03-30T20:22:15.066Z,17.97
2019-03-30T20:24:56.072Z,18.33
2019-03-30T20:27:37.248Z,18.10
2019-03-30T20:30:18.351Z,15.87
2019-03-30T20:32:59.035Z,17.10
2019-03-30T20:35:40.204Z,15.57
2019-03-30T20:38:21.209Z,16.13
2019-03-30T20:41:01.708Z,15.97
2019-03-30T20:43:42.521Z,16.50
2019-03-30T20:46:23.136Z,17.33
2019-03-30T20:49:03.862Z,19.37
2019-03-30T20:51:44.384Z,15.63
2019-03-30T20:54:24.988Z,16.83
2019-03-30T20:57:05.981Z,16.07
2019-03-30T20:59:46.728Z,14.73
2019-03-30T21:02:28.017Z,15.27
2019-03-30T21:05:08.629Z,13.97
2019-03-30T21:07:49.504Z,14.77
2019-03-30T21:10:30.138Z,16.00
2019-03-30T21:13:10.768Z,15.77
2019-03-30T21:15:51.879Z,16.27
2019-03-30T21:18:32.628Z,15.53
2019-03-30T21:21:13.060Z,16.47
2019-03-30T21:23:54.169Z,14.20
2019-03-30T21:26:34.669Z,16.33
2019-03-30T21:29:15.608Z,14.23
2019-03-30T21:31:56.532Z,15.83
2019-03-30T21:34:37.013Z,20.80
2019-03-30T21:37:17.862Z,15.90
2019-03-30T21:39:58.542Z,17.20
2019-03-30T21:42:39.300Z,17.10
2019-03-30T21:45:19.905Z,16.97
2019-03-30T21:48:00.865Z,17.43
2019-03-30T21:50:41.797Z,16.90
2019-03-30T21:56:11.713Z,15.13
2019-03-30T21:58:52.700Z,16.03
2019-03-30T22:01:33.388Z,22.20
2019-03-30T22:04:14.341Z,18.00
2019-03-30T22:06:54.900Z,17.13
2019-03-30T22:09:35.936Z,16.60
2019-03-30T22:12:16.636Z,18.17
2019-03-30T22:14:57.415Z,16.77
2019-03-30T22:17:38.291Z,16.07
2019-03-30T22:20:21.283Z,17.87
2019-03-30T22:23:01.861Z,20.83
2019-03-30T22:25:42.726Z,17.13
2019-03-30T22:28:23.773Z,17.30
2019-03-30T22:31:04.490Z,21.00
2019-03-30T22:36:28.524Z,18.60
2019-03-30T22:39:09.162Z,22.80
2019-03-30T22:41:50.259Z,21.70
2019-03-30T22:44:31.161Z,18.93
2019-03-30T22:47:11.952Z,20.47
2019-03-30T22:49:52.809Z,18.77
2019-03-30T22:52:33.862Z,17.60
2019-03-30T22:55:14.385Z,18.80
2019-03-30T22:57:54.898Z,18.17
2019-03-30T23:03:39.039Z,21.70
2019-03-30T23:06:19.389Z,19.17
2019-03-30T23:08:59.920Z,22.40
2019-03-30T23:11:40.729Z,21.10
2019-03-30T23:14:21.361Z,21.50
2019-03-30T23:17:02.176Z,25.03
2019-03-30T23:19:43.084Z,24.60
2019-03-30T23:22:23.935Z,21.77
2019-03-30T23:25:04.523Z,22.80
2019-03-30T23:27:45.287Z,20.83
2019-03-30T23:33:09.209Z,20.57
2019-03-30T23:38:35.785Z,18.50
2019-03-30T23:41:16.614Z,17.60
2019-03-30T23:43:57.926Z,15.30
2019-03-30T23:46:38.726Z,17.03
2019-03-30T23:49:19.491Z,16.70
2019-03-30T23:52:00.194Z,17.87
2019-03-30T23:54:40.994Z,18.60
2019-03-30T23:57:21.730Z,18.60
